createdAt,value
2018-06-17T00:00:54.567Z,19.20
2018-06-17T00:03:22.175Z,19.30
2018-06-17T00:05:49.772Z,19.20
2018-06-17T00:08:17.309Z,19.10
2018-06-17T00:10:44.906Z,19.20
2018-06-17T00:13:12.490Z,19.30
2018-06-17T00:15:40.055Z,19.30
2018-06-17T00:18:07.633Z,19.40
2018-06-17T00:20:35.245Z,19.40
2018-06-17T00:23:02.831Z,19.40
2018-06-17T00:25:30.467Z,19.50
2018-06-17T00:27:58.657Z,19.50
2018-06-17T00:30:28.036Z,19.50
2018-06-17T00:32:55.655Z,19.60
2018-06-17T00:35:23.227Z,19.60
2018-06-17T00:37:51.178Z,19.60
2018-06-17T00:40:18.814Z,19.70
2018-06-17T00:42:46.407Z,19.70
2018-06-17T00:45:13.942Z,19.70
2018-06-17T00:47:41.575Z,19.70
2018-06-17T00:50:09.111Z,19.80
2018-06-17T00:52:36.684Z,19.80
2018-06-17T00:55:05.260Z,19.80
2018-06-17T00:57:46.905Z,19.80
2018-06-17T01:00:14.527Z,19.80
2018-06-17T01:02:42.217Z,19.80
2018-06-17T01:05:09.803Z,19.70
2018-06-17T01:07:37.487Z,19.70
2018-06-17T01:10:05.094Z,19.60
2018-06-17T01:12:32.667Z,19.60
2018-06-17T01:15:00.233Z,19.50
2018-06-17T01:17:27.805Z,19.50
2018-06-17T01:19:55.409Z,19.60
2018-06-17T01:22:23.097Z,19.60
2018-06-17T01:24:50.654Z,19.60
2018-06-17T01:27:18.214Z,19.70
2018-06-17T01:29:45.854Z,19.70
2018-06-17T01:32:13.396Z,19.70
2018-06-17T01:34:40.962Z,19.60
2018-06-17T01:37:09.243Z,19.60
2018-06-17T01:39:36.858Z,19.60
2018-06-17T01:42:04.433Z,19.60
2018-06-17T01:44:32.023Z,19.60
2018-06-17T01:46:59.596Z,19.60
2018-06-17T01:49:27.161Z,19.70
2018-06-17T01:51:54.730Z,19.70
2018-06-17T01:54:22.331Z,19.70
2018-06-17T01:56:49.958Z,19.80
2018-06-17T01:59:17.688Z,19.90
2018-06-17T02:01:45.303Z,19.80
2018-06-17T02:04:18.544Z,19.80
2018-06-17T02:06:51.785Z,19.80
2018-06-17T02:09:24.973Z,19.70
2018-06-17T02:11:58.160Z,19.70
2018-06-17T02:14:31.427Z,19.70
2018-06-17T02:16:59.010Z,19.70
2018-06-17T02:19:27.270Z,19.70
2018-06-17T02:21:54.840Z,19.80
2018-06-17T02:24:22.466Z,19.80
2018-06-17T02:26:50.005Z,19.80
2018-06-17T02:29:18.112Z,19.90
2018-06-17T02:31:45.713Z,19.90
2018-06-17T02:34:13.260Z,19.80
2018-06-17T02:36:40.857Z,19.70
2018-06-17T02:39:09.070Z,19.70
2018-06-17T02:41:37.113Z,19.60
2018-06-17T02:44:04.700Z,19.50
2018-06-17T02:46:37.980Z,19.50
2018-06-17T02:49:11.740Z,19.50
2018-06-17T02:54:18.107Z,19.40
2018-06-17T02:56:45.691Z,19.50
2018-06-17T02:59:13.291Z,19.40
2018-06-17T03:01:40.870Z,19.50
2018-06-17T03:04:09.858Z,19.50
2018-06-17T03:06:37.435Z,19.40
2018-06-17T03:09:07.392Z,19.40
2018-06-17T03:11:35.317Z,19.40
2018-06-17T03:14:02.909Z,19.50
2018-06-17T03:16:30.576Z,19.50
2018-06-17T03:18:58.151Z,19.50
2018-06-17T03:21:26.308Z,19.40
2018-06-17T03:26:33.767Z,19.40
2018-06-17T03:29:06.958Z,19.50
2018-06-17T03:31:40.157Z,19.50
2018-06-17T03:34:07.753Z,19.50
2018-06-17T03:36:35.354Z,19.60
2018-06-17T03:39:04.574Z,19.50
2018-06-17T03:41:32.178Z,19.50
2018-06-17T03:43:59.745Z,19.50
2018-06-17T03:46:27.347Z,19.50
2018-06-17T03:48:54.921Z,19.40
2018-06-17T03:51:22.505Z,19.40
2018-06-17T03:53:50.132Z,19.40
2018-06-17T03:56:17.760Z,19.40
2018-06-17T03:58:45.323Z,19.50
2018-06-17T04:01:12.918Z,19.50
2018-06-17T04:03:40.483Z,19.50
2018-06-17T04:06:08.721Z,19.60
2018-06-17T04:08:36.307Z,19.60
2018-06-17T04:11:03.901Z,19.60
2018-06-17T04:13:31.468Z,19.70
2018-06-17T04:15:59.133Z,19.80
2018-06-17T04:18:26.674Z,19.80
2018-06-17T04:20:55.714Z,19.80
2018-06-17T04:23:23.316Z,19.90
2018-06-17T04:25:50.965Z,20.00
2018-06-17T04:28:18.550Z,20.00
2018-06-17T04:30:46.180Z,20.00
2018-06-17T04:33:13.757Z,20.00
2018-06-17T04:35:41.364Z,20.10
2018-06-17T04:38:08.933Z,20.10
2018-06-17T04:40:36.563Z,20.00
2018-06-17T04:43:04.214Z,19.90
2018-06-17T04:45:31.909Z,19.90
2018-06-17T04:47:59.463Z,19.80
2018-06-17T04:50:27.028Z,19.90
2018-06-17T04:52:54.635Z,19.90
2018-06-17T04:55:22.194Z,20.10
2018-06-17T04:57:49.807Z,20.10
2018-06-17T05:00:17.385Z,20.40
2018-06-17T05:02:44.954Z,20.60
2018-06-17T05:05:12.524Z,20.80
2018-06-17T05:07:40.167Z,21.00
2018-06-17T05:10:07.785Z,21.10
2018-06-17T05:12:35.337Z,21.20
2018-06-17T05:17:30.804Z,21.30
2018-06-17T05:19:58.378Z,21.30
2018-06-17T05:22:26.032Z,21.30
2018-06-17T05:24:53.620Z,21.30
2018-06-17T05:27:21.146Z,21.40
2018-06-17T05:29:48.765Z,21.40
2018-06-17T05:34:43.845Z,21.30
2018-06-17T05:37:11.499Z,21.30
2018-06-17T05:39:39.075Z,21.30
2018-06-17T05:42:06.665Z,21.40
2018-06-17T05:44:34.235Z,21.50
2018-06-17T05:47:01.780Z,21.50
2018-06-17T05:51:57.880Z,21.60
2018-06-17T05:54:25.436Z,21.60
2018-06-17T05:56:53.017Z,21.70
2018-06-17T05:59:20.635Z,21.70
2018-06-17T06:01:48.941Z,21.80
2018-06-17T06:04:16.520Z,21.80
2018-06-17T06:06:44.113Z,21.80
2018-06-17T06:09:13.302Z,21.80
2018-06-17T06:11:43.120Z,21.80
2018-06-17T06:14:10.718Z,21.80
2018-06-17T06:16:38.271Z,22.00
2018-06-17T06:19:05.852Z,22.00
2018-06-17T06:21:33.829Z,22.00
2018-06-17T06:24:01.684Z,21.90
2018-06-17T06:26:29.312Z,21.90
2018-06-17T06:28:56.934Z,22.00
2018-06-17T06:31:24.515Z,22.10
2018-06-17T06:33:52.118Z,22.10
2018-06-17T06:36:20.734Z,22.10
2018-06-17T06:38:48.339Z,22.20
2018-06-17T06:41:16.894Z,22.10
2018-06-17T06:43:44.513Z,22.10
2018-06-17T06:46:12.113Z,22.20
2018-06-17T06:48:39.737Z,22.20
2018-06-17T06:51:07.568Z,22.20
2018-06-17T06:53:35.149Z,22.20
2018-06-17T06:56:03.896Z,22.10
2018-06-17T06:58:31.557Z,22.10
2018-06-17T07:00:59.119Z,22.10
2018-06-17T07:03:38.186Z,22.10
2018-06-17T07:06:17.029Z,22.20
2018-06-17T07:08:56.116Z,22.40
2018-06-17T07:11:23.685Z,22.40
2018-06-17T07:13:51.350Z,22.40
2018-06-17T07:16:30.207Z,22.50
2018-06-17T07:18:57.803Z,22.60
2018-06-17T07:21:25.490Z,22.70
2018-06-17T07:23:53.090Z,22.80
2018-06-17T07:26:37.582Z,22.80
2018-06-17T07:29:16.582Z,22.80
2018-06-17T07:31:44.865Z,22.80
2018-06-17T07:36:41.071Z,22.70
2018-06-17T07:39:20.841Z,22.70
2018-06-17T07:41:49.005Z,22.70
2018-06-17T07:44:16.607Z,22.80
2018-06-17T07:46:44.237Z,22.90
2018-06-17T07:49:36.992Z,23.00
2018-06-17T07:52:16.931Z,23.10
2018-06-17T07:54:44.887Z,23.30
2018-06-17T07:57:14.576Z,23.40
2018-06-17T07:59:42.152Z,23.60
2018-06-17T08:02:10.129Z,23.80
2018-06-17T08:04:37.746Z,24.10
2018-06-17T08:07:05.405Z,24.30
2018-06-17T08:09:32.979Z,24.50
2018-06-17T08:12:00.855Z,24.70
2018-06-17T08:14:28.501Z,24.90
2018-06-17T08:16:56.501Z,24.90
2018-06-17T08:19:25.397Z,25.00
2018-06-17T08:21:53.722Z,25.10
2018-06-17T08:24:21.335Z,25.20
2018-06-17T08:26:48.980Z,25.30
2018-06-17T08:29:16.522Z,25.20
2018-06-17T08:31:44.085Z,25.30
2018-06-17T08:34:11.669Z,25.30
2018-06-17T08:36:40.325Z,25.40
2018-06-17T08:39:10.688Z,25.40
2018-06-17T08:41:38.396Z,25.30
2018-06-17T08:44:06.106Z,25.20
2018-06-17T08:46:34.089Z,25.20
2018-06-17T08:49:01.751Z,25.20
2018-06-17T08:51:29.401Z,25.30
2018-06-17T08:53:57.105Z,25.20
2018-06-17T08:56:25.508Z,25.20
2018-06-17T08:58:53.085Z,25.20
2018-06-17T09:01:20.715Z,25.40
2018-06-17T09:03:48.324Z,25.60
2018-06-17T09:06:16.593Z,25.80
2018-06-17T09:08:44.228Z,25.70
2018-06-17T09:11:11.928Z,25.70
2018-06-17T09:13:39.631Z,25.70
2018-06-17T09:16:07.343Z,25.60
2018-06-17T09:18:35.604Z,25.60
2018-06-17T09:21:03.299Z,25.60
2018-06-17T09:23:30.912Z,25.60
2018-06-17T09:25:58.501Z,25.60
2018-06-17T09:28:26.150Z,25.60
2018-06-17T09:30:53.719Z,25.60
2018-06-17T09:33:21.384Z,25.60
2018-06-17T09:35:49.109Z,25.70
2018-06-17T09:38:17.288Z,25.80
2018-06-17T09:40:44.946Z,26.00
2018-06-17T09:43:12.533Z,26.30
2018-06-17T09:45:40.164Z,26.60
2018-06-17T09:48:07.819Z,26.80
2018-06-17T09:50:35.400Z,27.10
2018-06-17T09:53:03.080Z,27.20
2018-06-17T09:55:30.697Z,27.20
2018-06-17T09:57:58.351Z,27.20
2018-06-17T10:00:25.957Z,27.00
2018-06-17T10:02:54.841Z,26.70
2018-06-17T10:05:23.723Z,26.60
2018-06-17T10:07:51.375Z,26.60
2018-06-17T10:10:53.218Z,26.60
2018-06-17T10:13:21.983Z,26.50
2018-06-17T10:15:49.982Z,26.60
2018-06-17T10:18:18.308Z,26.70
2018-06-17T10:20:46.024Z,26.70
2018-06-17T10:25:41.306Z,26.80
2018-06-17T10:28:09.648Z,26.90
2018-06-17T10:30:38.599Z,27.10
2018-06-17T10:33:07.045Z,27.40
2018-06-17T10:35:34.660Z,27.90
2018-06-17T10:38:02.305Z,28.40
2018-06-17T10:40:29.967Z,28.90
2018-06-17T10:45:25.066Z,29.80
2018-06-17T10:47:52.688Z,30.20
2018-06-17T10:50:20.386Z,30.50
2018-06-17T10:52:47.999Z,30.60
2018-06-17T10:55:15.786Z,30.90
2018-06-17T10:57:44.367Z,31.10
2018-06-17T11:00:12.056Z,31.30
2018-06-17T11:02:39.649Z,31.50
2018-06-17T11:05:07.907Z,31.60
2018-06-17T11:07:35.918Z,31.30
2018-06-17T11:10:04.761Z,31.00
2018-06-17T11:12:32.728Z,30.90
2018-06-17T11:15:00.336Z,30.60
2018-06-17T11:17:28.020Z,30.80
2018-06-17T11:19:55.574Z,31.00
2018-06-17T11:22:23.273Z,31.00
2018-06-17T11:24:50.911Z,31.00
2018-06-17T11:27:18.864Z,31.10
2018-06-17T11:29:46.501Z,31.10
2018-06-17T11:32:14.087Z,30.90
2018-06-17T11:34:41.677Z,30.70
2018-06-17T11:37:09.235Z,30.60
2018-06-17T11:39:36.854Z,30.30
2018-06-17T11:42:04.537Z,30.10
2018-06-17T11:44:32.200Z,30.10
2018-06-17T11:46:59.801Z,30.80
2018-06-17T11:49:27.417Z,32.40
2018-06-17T11:51:55.023Z,34.00
2018-06-17T11:54:22.627Z,35.60
2018-06-17T11:56:50.263Z,37.00
2018-06-17T11:59:17.982Z,39.40
2018-06-17T12:01:45.652Z,41.90
2018-06-17T12:04:13.298Z,43.40
2018-06-17T12:06:41.018Z,42.60
2018-06-17T12:09:09.655Z,40.80
2018-06-17T12:11:37.424Z,39.60
2018-06-17T12:14:05.275Z,40.50
2018-06-17T12:16:32.929Z,42.40
2018-06-17T12:19:00.668Z,44.40
2018-06-17T12:21:28.406Z,45.10
2018-06-17T12:23:56.225Z,45.70
2018-06-17T12:26:23.827Z,47.00
2018-06-17T12:28:52.314Z,46.80
2018-06-17T12:31:19.961Z,45.70
2018-06-17T12:33:47.553Z,43.70
2018-06-17T12:36:15.221Z,41.60
2018-06-17T12:38:42.896Z,39.60
2018-06-17T12:41:10.529Z,38.10
2018-06-17T12:43:38.196Z,37.10
2018-06-17T12:46:06.117Z,37.90
2018-06-17T12:48:34.172Z,38.20
2018-06-17T12:51:01.801Z,37.00
2018-06-17T12:53:29.427Z,35.80
2018-06-17T12:55:57.098Z,35.40
2018-06-17T12:58:26.142Z,35.10
2018-06-17T13:00:54.424Z,34.40
2018-06-17T13:03:22.101Z,33.80
2018-06-17T13:05:49.835Z,33.30
2018-06-17T13:08:18.017Z,33.30
2018-06-17T13:10:45.683Z,33.10
2018-06-17T13:13:13.360Z,32.60
2018-06-17T13:15:40.983Z,32.00
2018-06-17T13:18:08.574Z,31.40
2018-06-17T13:20:36.229Z,31.30
2018-06-17T13:23:03.901Z,31.10
2018-06-17T13:25:31.573Z,31.00
2018-06-17T13:27:59.163Z,31.20
2018-06-17T13:30:26.745Z,32.10
2018-06-17T13:32:54.394Z,32.20
2018-06-17T13:35:22.004Z,32.00
2018-06-17T13:37:50.225Z,31.40
2018-06-17T13:40:17.837Z,30.80
2018-06-17T13:42:45.481Z,30.10
2018-06-17T13:45:13.061Z,29.60
2018-06-17T13:47:40.682Z,29.20
2018-06-17T13:50:08.247Z,29.30
2018-06-17T13:52:35.818Z,29.70
2018-06-17T13:55:03.820Z,29.70
2018-06-17T13:57:31.546Z,29.70
2018-06-17T13:59:59.165Z,29.50
2018-06-17T14:02:26.828Z,29.30
2018-06-17T14:07:21.948Z,28.60
2018-06-17T14:09:49.557Z,28.40
2018-06-17T14:12:17.749Z,28.10
2018-06-17T14:14:45.397Z,27.80
2018-06-17T14:17:13.148Z,27.40
2018-06-17T14:19:40.770Z,27.10
2018-06-17T14:22:08.372Z,26.90
2018-06-17T14:24:35.998Z,26.60
2018-06-17T14:27:03.644Z,26.40
2018-06-17T14:29:31.241Z,26.20
2018-06-17T14:31:58.845Z,26.00
2018-06-17T14:34:26.409Z,25.70
2018-06-17T14:36:54.098Z,25.30
2018-06-17T14:39:22.569Z,24.90
2018-06-17T14:41:55.797Z,24.70
2018-06-17T14:46:30.555Z,24.40
2018-06-17T14:49:03.662Z,24.40
2018-06-17T14:51:36.898Z,24.30
2018-06-17T14:54:04.603Z,24.30
2018-06-17T14:56:33.221Z,24.40
2018-06-17T14:59:00.883Z,24.50
2018-06-17T15:01:28.492Z,24.60
2018-06-17T15:03:56.102Z,24.60
2018-06-17T15:08:51.221Z,24.50
2018-06-17T15:11:18.875Z,24.40
2018-06-17T15:13:46.492Z,24.40
2018-06-17T15:16:14.063Z,24.30
2018-06-17T15:18:41.678Z,24.30
2018-06-17T15:21:09.312Z,24.10
2018-06-17T15:23:36.923Z,23.90
2018-06-17T15:26:04.683Z,23.80
2018-06-17T15:28:32.238Z,23.70
2018-06-17T15:31:05.435Z,23.50
2018-06-17T15:33:38.620Z,23.50
2018-06-17T15:36:21.438Z,23.50
2018-06-17T15:38:51.364Z,23.60
2018-06-17T15:41:25.065Z,23.60
2018-06-17T15:43:53.540Z,23.50
2018-06-17T15:46:21.172Z,23.60
2018-06-17T15:48:48.925Z,23.60
2018-06-17T15:51:16.532Z,23.70
2018-06-17T15:53:44.179Z,23.70
2018-06-17T15:56:11.819Z,23.80
2018-06-17T15:58:39.569Z,23.80
2018-06-17T16:01:07.150Z,23.90
2018-06-17T16:03:34.777Z,24.00
2018-06-17T16:06:02.540Z,24.10
2018-06-17T16:08:30.788Z,24.10
2018-06-17T16:10:58.490Z,24.10
2018-06-17T16:13:31.700Z,24.10
2018-06-17T16:16:05.009Z,24.10
2018-06-17T16:18:38.257Z,24.10
2018-06-17T16:21:07.187Z,23.90
2018-06-17T16:23:35.286Z,23.70
2018-06-17T16:26:03.258Z,23.50
2018-06-17T16:28:30.990Z,23.20
2018-06-17T16:30:58.560Z,23.00
2018-06-17T16:33:26.242Z,22.90
2018-06-17T16:35:54.023Z,22.80
2018-06-17T16:38:22.017Z,22.70
2018-06-17T16:40:49.929Z,22.60
2018-06-17T16:43:17.607Z,22.60
2018-06-17T16:45:45.276Z,22.50
2018-06-17T16:48:12.866Z,22.30
2018-06-17T16:50:45.789Z,22.30
2018-06-17T16:53:19.040Z,22.20
2018-06-17T16:55:52.352Z,22.10
2018-06-17T16:58:25.635Z,22.10
2018-06-17T17:00:54.274Z,22.00
2018-06-17T17:03:21.907Z,22.00
2018-06-17T17:05:49.477Z,22.00
2018-06-17T17:08:17.176Z,21.90
2018-06-17T17:10:44.793Z,21.80
2018-06-17T17:13:12.465Z,21.70
2018-06-17T17:15:40.119Z,21.80
2018-06-17T17:18:07.696Z,21.80
2018-06-17T17:20:35.327Z,21.70
2018-06-17T17:23:02.924Z,21.60
2018-06-17T17:25:30.539Z,21.70
2018-06-17T17:27:58.199Z,21.70
2018-06-17T17:30:25.814Z,21.70
2018-06-17T17:32:59.170Z,21.60
2018-06-17T17:40:10.452Z,21.60
2018-06-17T17:42:38.072Z,21.30
2018-06-17T17:45:14.779Z,21.40
2018-06-17T17:47:42.561Z,21.50
2018-06-17T17:50:10.207Z,21.50
2018-06-17T17:52:37.823Z,21.60
2018-06-17T17:55:06.315Z,21.70
2018-06-17T17:57:34.586Z,21.60
2018-06-17T18:00:02.250Z,21.60
2018-06-17T18:02:29.920Z,21.60
2018-06-17T18:04:58.263Z,21.50
2018-06-17T18:07:25.906Z,21.50
2018-06-17T18:09:53.570Z,21.50
2018-06-17T18:12:21.267Z,21.40
2018-06-17T18:14:48.883Z,21.40
2018-06-17T18:17:16.508Z,21.40
2018-06-17T18:19:44.227Z,21.30
2018-06-17T18:22:11.992Z,21.30
2018-06-17T18:24:39.639Z,21.30
2018-06-17T18:29:45.789Z,21.20
2018-06-17T18:32:19.122Z,21.30
2018-06-17T18:34:52.448Z,21.20
2018-06-17T18:37:20.186Z,21.20
2018-06-17T18:39:47.895Z,21.20
2018-06-17T18:42:15.568Z,21.20
2018-06-17T18:44:43.244Z,21.20
2018-06-17T18:47:10.929Z,21.20
2018-06-17T18:52:06.599Z,21.10
2018-06-17T18:54:34.296Z,21.10
2018-06-17T18:57:01.971Z,21.00
2018-06-17T18:59:29.682Z,21.00
2018-06-17T19:01:58.324Z,21.00
2018-06-17T19:04:25.979Z,21.00
2018-06-17T19:06:53.692Z,21.00
2018-06-17T19:09:26.976Z,21.00
2018-06-17T19:12:00.244Z,21.00
2018-06-17T19:17:06.580Z,21.00
2018-06-17T19:19:34.777Z,21.00
2018-06-17T19:22:02.441Z,21.00
2018-06-17T19:24:30.142Z,21.00
2018-06-17T19:26:57.798Z,20.90
2018-06-17T19:29:25.384Z,20.90
2018-06-17T19:31:53.021Z,20.80
2018-06-17T19:34:20.636Z,20.80
2018-06-17T19:36:49.312Z,20.80
2018-06-17T19:39:16.977Z,20.80
2018-06-17T19:41:44.640Z,20.80
2018-06-17T19:44:12.236Z,20.80
2018-06-17T19:46:39.954Z,20.70
2018-06-17T19:49:08.462Z,20.80
2018-06-17T19:51:41.827Z,20.70
2018-06-17T19:54:14.980Z,20.70
2018-06-17T19:56:48.236Z,20.70
2018-06-17T19:59:21.472Z,20.60
2018-06-17T20:01:49.096Z,20.60
2018-06-17T20:06:44.268Z,20.60
2018-06-17T20:09:12.582Z,20.60
2018-06-17T20:11:40.943Z,20.60
2018-06-17T20:14:08.540Z,20.60
2018-06-17T20:16:37.744Z,20.60
2018-06-17T20:19:05.570Z,20.60
2018-06-17T20:21:33.215Z,20.60
2018-06-17T20:24:00.843Z,20.60
2018-06-17T20:26:28.441Z,20.60
2018-06-17T20:28:56.096Z,20.50
2018-06-17T20:31:23.761Z,20.60
2018-06-17T20:33:57.853Z,20.60
2018-06-17T20:36:31.113Z,20.60
2018-06-17T20:41:37.545Z,20.50
2018-06-17T20:44:05.343Z,20.60
2018-06-17T20:46:32.930Z,20.50
2018-06-17T20:49:00.538Z,20.50
2018-06-17T20:51:28.747Z,20.50
2018-06-17T20:53:56.333Z,20.40
2018-06-17T20:56:23.961Z,20.40
2018-06-17T20:58:51.806Z,20.40
2018-06-17T21:01:19.409Z,20.40
2018-06-17T21:03:47.024Z,20.40
2018-06-17T21:06:14.645Z,20.40
2018-06-17T21:08:42.199Z,20.40
2018-06-17T21:11:09.822Z,20.40
2018-06-17T21:13:37.515Z,20.40
2018-06-17T21:18:38.214Z,20.40
2018-06-17T21:21:11.551Z,20.40
2018-06-17T21:23:44.849Z,20.30
2018-06-17T21:26:18.040Z,20.30
2018-06-17T21:28:45.665Z,20.30
2018-06-17T21:31:13.327Z,20.30
2018-06-17T21:33:40.964Z,20.30
2018-06-17T21:36:08.569Z,20.30
2018-06-17T21:38:36.144Z,20.30
2018-06-17T21:41:03.797Z,20.30
2018-06-17T21:43:31.362Z,20.30
2018-06-17T21:45:58.972Z,20.30
2018-06-17T21:48:26.567Z,20.40
2018-06-17T21:50:55.115Z,20.40
2018-06-17T21:53:22.715Z,20.40
2018-06-17T21:55:50.923Z,20.40
2018-06-17T21:58:24.732Z,20.40
2018-06-17T22:00:53.579Z,20.40
2018-06-17T22:03:21.183Z,20.40
2018-06-17T22:05:48.760Z,20.40
2018-06-17T22:08:21.986Z,20.40
2018-06-17T22:10:56.215Z,20.50
2018-06-17T22:13:27.362Z,20.50
2018-06-17T22:16:00.555Z,20.50
2018-06-17T22:18:28.180Z,20.50
2018-06-17T22:20:55.769Z,20.40
2018-06-17T22:23:23.313Z,20.40
2018-06-17T22:25:50.882Z,20.50
2018-06-17T22:30:46.003Z,20.50
2018-06-17T22:35:41.146Z,20.50
2018-06-17T22:38:08.699Z,20.50
2018-06-17T22:40:36.291Z,20.50
2018-06-17T22:43:03.853Z,20.60
2018-06-17T22:45:31.502Z,20.60
2018-06-17T22:47:59.572Z,20.50
2018-06-17T22:50:27.387Z,20.50
2018-06-17T22:54:05.380Z,20.50
2018-06-17T22:56:38.628Z,20.40
2018-06-17T22:59:11.959Z,20.40
2018-06-17T23:01:45.256Z,20.40
2018-06-17T23:04:18.568Z,20.40
2018-06-17T23:06:51.806Z,20.40
2018-06-17T23:09:40.137Z,20.30
2018-06-17T23:12:07.688Z,20.30
2018-06-17T23:14:35.283Z,20.40
2018-06-17T23:17:03.078Z,20.30
2018-06-17T23:19:30.815Z,20.30
2018-06-17T23:21:58.406Z,20.30
2018-06-17T23:24:25.989Z,20.30
2018-06-17T23:26:53.607Z,20.30
2018-06-17T23:29:21.621Z,20.30
2018-06-17T23:31:49.221Z,20.30
2018-06-17T23:34:16.900Z,20.20
2018-06-17T23:36:44.494Z,20.30
2018-06-17T23:39:12.059Z,20.20
2018-06-17T23:41:39.701Z,20.10
2018-06-17T23:44:07.284Z,20.10
2018-06-17T23:46:40.365Z,20.00
2018-06-17T23:49:13.630Z,20.00
2018-06-17T23:51:46.860Z,20.00
2018-06-17T23:54:20.068Z,20.00
2018-06-17T23:56:47.686Z,19.90
2018-06-17T23:59:15.218Z,19.90
